createdAt,value
2019-03-04T00:00:38.700Z,13.40
2019-03-04T00:03:07.127Z,13.40
2019-03-04T00:05:35.198Z,13.40
2019-03-04T00:08:03.075Z,13.40
2019-03-04T00:10:31.284Z,13.30
2019-03-04T00:12:59.274Z,13.30
2019-03-04T00:15:27.164Z,13.30
2019-03-04T00:17:55.675Z,13.30
2019-03-04T00:20:23.681Z,13.20
2019-03-04T00:22:51.595Z,13.20
2019-03-04T00:25:19.507Z,13.10
2019-03-04T00:27:47.438Z,13.20
2019-03-04T00:30:15.626Z,13.20
2019-03-04T00:32:45.282Z,13.20
2019-03-04T00:35:13.072Z,13.00
2019-03-04T00:37:41.102Z,13.10
2019-03-04T00:40:09.665Z,13.10
2019-03-04T00:42:37.984Z,13.10
2019-03-04T00:45:06.143Z,13.10
2019-03-04T00:47:34.072Z,13.00
2019-03-04T00:50:02.000Z,13.00
2019-03-04T00:52:29.955Z,12.90
2019-03-04T00:54:57.949Z,12.90
2019-03-04T00:57:26.357Z,12.90
2019-03-04T00:59:54.328Z,12.80
2019-03-04T01:02:22.234Z,12.80
2019-03-04T01:04:50.202Z,12.70
2019-03-04T01:07:18.519Z,12.70
2019-03-04T01:09:46.640Z,12.70
2019-03-04T01:12:14.555Z,12.70
2019-03-04T01:14:42.891Z,12.70
2019-03-04T01:17:10.951Z,12.70
2019-03-04T01:19:39.162Z,12.60
2019-03-04T01:22:07.402Z,12.60
2019-03-04T01:24:35.307Z,12.60
2019-03-04T01:27:03.851Z,12.70
2019-03-04T01:29:32.208Z,12.60
2019-03-04T01:32:00.594Z,12.60
2019-03-04T01:34:28.571Z,12.60
2019-03-04T01:36:56.736Z,12.70
2019-03-04T01:39:24.950Z,12.70
2019-03-04T01:41:52.780Z,12.70
2019-03-04T01:44:21.131Z,12.70
2019-03-04T01:46:49.014Z,12.60
2019-03-04T01:49:17.311Z,12.70
2019-03-04T01:51:45.693Z,12.60
2019-03-04T01:54:13.674Z,12.60
2019-03-04T01:56:41.543Z,12.60
2019-03-04T01:59:09.391Z,12.50
2019-03-04T02:01:37.395Z,12.60
2019-03-04T02:04:05.353Z,12.70
2019-03-04T02:06:33.211Z,12.60
2019-03-04T02:09:01.699Z,12.70
2019-03-04T02:11:29.718Z,12.70
2019-03-04T02:13:57.639Z,12.70
2019-03-04T02:16:25.747Z,12.70
2019-03-04T02:18:53.651Z,12.70
2019-03-04T02:21:21.648Z,12.70
2019-03-04T02:23:49.559Z,12.80
2019-03-04T02:26:26.712Z,12.70
2019-03-04T02:28:55.050Z,12.70
2019-03-04T02:31:22.999Z,12.70
2019-03-04T02:33:50.982Z,12.70
2019-03-04T02:36:19.111Z,12.70
2019-03-04T02:38:46.996Z,12.60
2019-03-04T02:41:15.232Z,12.60
2019-03-04T02:43:43.108Z,12.70
2019-03-04T02:46:11.513Z,12.70
2019-03-04T02:48:39.466Z,12.70
2019-03-04T02:51:07.962Z,12.70
2019-03-04T02:53:36.047Z,12.70
2019-03-04T02:56:04.151Z,12.70
2019-03-04T02:58:32.057Z,12.70
2019-03-04T03:01:00.470Z,12.70
2019-03-04T03:03:28.481Z,12.60
2019-03-04T03:05:56.347Z,12.50
2019-03-04T03:08:24.270Z,12.60
2019-03-04T03:10:52.562Z,12.60
2019-03-04T03:13:20.927Z,12.60
2019-03-04T03:15:48.963Z,12.60
2019-03-04T03:18:16.801Z,12.50
2019-03-04T03:20:44.997Z,12.50
2019-03-04T03:23:13.132Z,12.50
2019-03-04T03:25:40.975Z,12.40
2019-03-04T03:28:09.308Z,12.50
2019-03-04T03:30:37.154Z,12.50
2019-03-04T03:33:05.173Z,12.40
2019-03-04T03:35:33.806Z,12.40
2019-03-04T03:38:02.062Z,12.50
2019-03-04T03:40:30.391Z,12.50
2019-03-04T03:42:58.715Z,12.50
2019-03-04T03:45:27.229Z,12.50
2019-03-04T03:47:55.524Z,12.50
2019-03-04T03:50:23.894Z,12.40
2019-03-04T03:52:51.761Z,12.50
2019-03-04T03:55:20.133Z,12.40
2019-03-04T03:57:48.837Z,12.40
2019-03-04T04:00:17.933Z,12.40
2019-03-04T04:02:47.308Z,12.40
2019-03-04T04:05:15.360Z,12.40
2019-03-04T04:07:44.787Z,12.40
2019-03-04T04:10:12.812Z,12.40
2019-03-04T04:12:41.296Z,12.40
2019-03-04T04:15:10.073Z,12.40
2019-03-04T04:17:38.025Z,12.40
2019-03-04T04:20:06.612Z,12.40
2019-03-04T04:22:34.629Z,12.40
2019-03-04T04:25:02.668Z,12.40
2019-03-04T04:27:30.531Z,12.40
2019-03-04T04:29:58.499Z,12.30
2019-03-04T04:32:27.042Z,12.30
2019-03-04T04:34:55.379Z,12.30
2019-03-04T04:37:23.280Z,12.30
2019-03-04T04:39:51.219Z,12.20
2019-03-04T04:42:19.071Z,12.20
2019-03-04T04:44:46.986Z,12.20
2019-03-04T04:47:14.935Z,12.10
2019-03-04T04:49:42.916Z,12.10
2019-03-04T04:52:10.812Z,12.10
2019-03-04T04:54:39.262Z,12.20
2019-03-04T04:57:07.310Z,12.10
2019-03-04T04:59:35.297Z,12.10
2019-03-04T05:02:03.253Z,12.10
2019-03-04T05:04:31.226Z,12.00
2019-03-04T05:06:59.143Z,12.00
2019-03-04T05:09:27.095Z,12.10
2019-03-04T05:11:55.131Z,12.10
2019-03-04T05:14:23.509Z,12.00
2019-03-04T05:16:51.450Z,12.00
2019-03-04T05:19:19.448Z,12.00
2019-03-04T05:21:47.378Z,11.90
2019-03-04T05:24:15.326Z,11.80
2019-03-04T05:26:43.170Z,11.80
2019-03-04T05:29:11.019Z,11.90
2019-03-04T05:31:38.946Z,11.80
2019-03-04T05:34:06.947Z,11.90
2019-03-04T05:36:34.818Z,11.90
2019-03-04T05:39:04.759Z,11.90
2019-03-04T05:41:32.617Z,11.90
2019-03-04T05:44:00.666Z,11.90
2019-03-04T05:46:28.491Z,11.90
2019-03-04T05:48:56.441Z,11.90
2019-03-04T05:51:24.366Z,11.80
2019-03-04T05:53:52.264Z,11.80
2019-03-04T05:56:20.220Z,11.80
2019-03-04T05:58:48.163Z,11.80
2019-03-04T06:01:23.894Z,11.80
2019-03-04T06:03:53.823Z,11.80
2019-03-04T06:06:39.867Z,11.80
2019-03-04T06:09:09.585Z,11.80
2019-03-04T06:11:37.407Z,11.80
2019-03-04T06:14:06.191Z,11.80
2019-03-04T06:16:34.090Z,11.80
2019-03-04T06:19:01.979Z,11.80
2019-03-04T06:21:29.928Z,11.80
2019-03-04T06:23:57.863Z,11.80
2019-03-04T06:26:25.986Z,11.80
2019-03-04T06:28:53.835Z,11.80
2019-03-04T06:31:21.727Z,11.70
2019-03-04T06:33:49.624Z,11.70
2019-03-04T06:36:17.510Z,11.70
2019-03-04T06:38:45.419Z,11.60
2019-03-04T06:41:13.410Z,11.60
2019-03-04T06:43:41.275Z,11.60
2019-03-04T06:46:09.463Z,11.60
2019-03-04T06:48:37.367Z,11.70
2019-03-04T06:51:06.886Z,11.70
2019-03-04T06:53:42.167Z,11.70
2019-03-04T06:56:15.673Z,11.70
2019-03-04T06:58:45.687Z,11.70
2019-03-04T07:01:21.516Z,11.70
2019-03-04T07:04:15.919Z,11.70
2019-03-04T07:06:44.053Z,11.70
2019-03-04T07:09:17.218Z,11.70
2019-03-04T07:11:49.051Z,11.80
2019-03-04T07:14:17.976Z,11.80
2019-03-04T07:16:46.707Z,11.90
2019-03-04T07:19:17.766Z,11.90
2019-03-04T07:21:45.840Z,11.90
2019-03-04T07:24:13.751Z,11.90
2019-03-04T07:26:41.702Z,11.90
2019-03-04T07:29:09.941Z,11.90
2019-03-04T07:31:37.796Z,11.90
2019-03-04T07:34:06.211Z,11.90
2019-03-04T07:36:34.583Z,12.00
2019-03-04T07:39:08.563Z,12.00
2019-03-04T07:41:38.514Z,11.90
2019-03-04T07:44:06.502Z,11.90
2019-03-04T07:46:34.555Z,11.80
2019-03-04T07:49:02.565Z,11.90
2019-03-04T07:51:30.375Z,11.90
2019-03-04T07:53:58.319Z,11.80
2019-03-04T07:56:26.570Z,11.90
2019-03-04T07:58:54.574Z,11.90
2019-03-04T08:01:22.394Z,11.90
2019-03-04T08:03:50.451Z,11.90
2019-03-04T08:06:18.352Z,11.90
2019-03-04T08:09:22.734Z,11.90
2019-03-04T08:12:35.015Z,11.90
2019-03-04T08:15:03.335Z,11.90
2019-03-04T08:17:31.287Z,11.90
2019-03-04T08:19:59.163Z,11.90
2019-03-04T08:22:27.074Z,12.00
2019-03-04T08:24:54.959Z,12.20
2019-03-04T08:27:22.973Z,12.20
2019-03-04T08:29:51.224Z,12.30
2019-03-04T08:32:19.050Z,12.30
2019-03-04T08:34:46.982Z,12.40
2019-03-04T08:37:14.803Z,12.40
2019-03-04T08:39:42.731Z,12.40
2019-03-04T08:42:10.752Z,12.50
2019-03-04T08:44:38.684Z,12.50
2019-03-04T08:47:06.591Z,12.60
2019-03-04T08:49:34.427Z,12.70
2019-03-04T08:52:02.282Z,12.70
2019-03-04T08:54:30.158Z,12.80
2019-03-04T08:57:03.896Z,12.80
2019-03-04T08:59:28.286Z,12.80
2019-03-04T09:01:56.278Z,12.90
2019-03-04T09:04:24.255Z,12.90
2019-03-04T09:06:52.160Z,12.90
2019-03-04T09:09:20.067Z,12.90
2019-03-04T09:11:48.035Z,13.00
2019-03-04T09:14:35.755Z,13.10
2019-03-04T09:17:02.989Z,13.10
2019-03-04T09:19:30.946Z,13.10
2019-03-04T09:21:58.839Z,13.10
2019-03-04T09:24:26.701Z,13.20
2019-03-04T09:26:54.668Z,13.20
2019-03-04T09:29:22.622Z,13.20
2019-03-04T09:31:50.495Z,13.30
2019-03-04T09:34:18.391Z,13.40
2019-03-04T09:36:46.278Z,13.60
2019-03-04T09:39:15.182Z,13.80
2019-03-04T09:41:43.264Z,14.10
2019-03-04T09:44:11.098Z,14.30
2019-03-04T09:46:39.140Z,14.50
2019-03-04T09:49:07.158Z,14.70
2019-03-04T09:51:35.091Z,14.80
2019-03-04T09:54:03.077Z,14.80
2019-03-04T09:56:31.084Z,14.90
2019-03-04T09:58:58.922Z,15.00
2019-03-04T10:01:51.099Z,15.00
2019-03-04T10:04:47.406Z,15.10
2019-03-04T10:07:59.966Z,15.10
2019-03-04T10:10:59.278Z,15.10
2019-03-04T10:14:04.378Z,15.10
2019-03-04T10:17:19.645Z,15.30
2019-03-04T10:20:26.158Z,15.40
2019-03-04T10:23:36.383Z,15.60
2019-03-04T10:26:50.622Z,15.60
2019-03-04T10:30:02.144Z,15.60
2019-03-04T10:33:03.033Z,15.60
2019-03-04T10:36:01.585Z,15.70
2019-03-04T10:39:09.834Z,15.70
2019-03-04T10:42:12.934Z,15.60
2019-03-04T10:45:29.069Z,15.50
2019-03-04T10:47:57.172Z,15.40
2019-03-04T10:50:25.162Z,15.50
2019-03-04T10:52:53.324Z,15.50
2019-03-04T10:55:21.684Z,15.50
2019-03-04T10:57:49.628Z,15.70
2019-03-04T11:00:18.317Z,15.70
2019-03-04T11:02:47.598Z,15.80
2019-03-04T11:05:15.503Z,15.80
2019-03-04T11:07:43.615Z,15.90
2019-03-04T11:10:11.796Z,15.90
2019-03-04T11:12:39.714Z,16.00
2019-03-04T11:15:35.887Z,16.00
2019-03-04T11:18:03.838Z,16.00
2019-03-04T11:20:31.765Z,16.00
2019-03-04T11:22:59.759Z,16.00
2019-03-04T11:25:27.693Z,16.00
2019-03-04T11:27:55.680Z,16.10
2019-03-04T11:30:27.335Z,16.10
2019-03-04T11:32:55.231Z,16.30
2019-03-04T11:35:23.444Z,16.40
2019-03-04T11:37:51.696Z,16.50
2019-03-04T11:40:34.176Z,16.70
2019-03-04T11:43:02.067Z,16.80
2019-03-04T11:45:30.253Z,17.00
2019-03-04T11:47:58.533Z,17.20
2019-03-04T11:50:26.831Z,17.40
2019-03-04T11:52:54.910Z,17.50
2019-03-04T11:55:23.603Z,17.60
2019-03-04T11:57:51.871Z,17.80
2019-03-04T12:00:32.026Z,17.90
2019-03-04T12:03:00.187Z,17.90
2019-03-04T12:05:28.260Z,17.90
2019-03-04T12:07:56.190Z,17.80
2019-03-04T12:10:25.020Z,17.70
2019-03-04T12:12:53.008Z,17.80
2019-03-04T12:15:46.350Z,17.80
2019-03-04T12:18:14.822Z,17.80
2019-03-04T12:20:42.723Z,17.80
2019-03-04T12:23:10.610Z,17.80
2019-03-04T12:25:38.576Z,18.00
2019-03-04T12:28:06.706Z,18.10
2019-03-04T12:30:34.666Z,18.20
2019-03-04T12:33:02.979Z,18.50
2019-03-04T12:35:30.982Z,18.70
2019-03-04T12:37:58.924Z,18.80
2019-03-04T12:40:26.922Z,18.90
2019-03-04T12:42:54.823Z,18.90
2019-03-04T12:45:22.977Z,19.00
2019-03-04T12:47:51.084Z,19.10
2019-03-04T12:50:21.673Z,19.30
2019-03-04T12:52:49.690Z,19.20
2019-03-04T12:55:17.754Z,19.10
2019-03-04T12:57:46.866Z,18.90
2019-03-04T13:00:17.884Z,18.80
2019-03-04T13:02:56.696Z,18.70
2019-03-04T13:05:17.123Z,18.70
2019-03-04T13:07:46.632Z,18.80
2019-03-04T13:10:23.267Z,19.10
2019-03-04T13:12:51.163Z,19.20
2019-03-04T13:15:46.423Z,19.20
2019-03-04T13:18:36.858Z,19.30
2019-03-04T13:21:31.171Z,19.20
2019-03-04T13:24:38.782Z,19.20
2019-03-04T13:27:36.263Z,19.10
2019-03-04T13:30:05.462Z,19.20
2019-03-04T13:32:33.373Z,19.30
2019-03-04T13:35:01.360Z,19.50
2019-03-04T13:37:29.283Z,19.60
2019-03-04T13:39:57.182Z,19.70
2019-03-04T13:42:25.261Z,19.70
2019-03-04T13:44:53.199Z,20.10
2019-03-04T13:47:26.038Z,20.00
2019-03-04T13:49:53.941Z,20.00
2019-03-04T13:52:21.943Z,19.90
2019-03-04T13:54:49.774Z,20.00
2019-03-04T13:57:17.662Z,20.10
2019-03-04T13:59:45.959Z,20.30
2019-03-04T14:02:14.527Z,20.50
2019-03-04T14:04:42.435Z,20.40
2019-03-04T14:07:10.407Z,20.50
2019-03-04T14:09:38.406Z,20.50
2019-03-04T14:12:06.954Z,20.70
2019-03-04T14:15:11.520Z,20.80
2019-03-04T14:17:38.179Z,20.90
2019-03-04T14:20:06.904Z,20.80
2019-03-04T14:22:40.299Z,20.70
2019-03-04T14:25:05.728Z,20.60
2019-03-04T14:27:33.769Z,20.30
2019-03-04T14:30:01.947Z,20.40
2019-03-04T14:32:29.947Z,20.60
2019-03-04T14:34:57.853Z,20.40
2019-03-04T14:37:25.868Z,20.30
2019-03-04T14:39:53.714Z,20.30
2019-03-04T14:42:21.587Z,20.30
2019-03-04T14:44:49.639Z,20.50
2019-03-04T14:47:17.523Z,20.60
2019-03-04T14:49:45.426Z,20.80
2019-03-04T14:52:13.487Z,20.70
2019-03-04T14:54:41.366Z,20.70
2019-03-04T14:57:09.776Z,20.50
2019-03-04T14:59:37.640Z,20.50
2019-03-04T15:02:05.658Z,20.40
2019-03-04T15:04:33.482Z,20.50
2019-03-04T15:07:01.589Z,20.50
2019-03-04T15:09:29.479Z,20.30
2019-03-04T15:11:57.440Z,20.30
2019-03-04T15:14:46.264Z,20.10
2019-03-04T15:17:18.883Z,19.90
2019-03-04T15:19:47.068Z,19.60
2019-03-04T15:22:15.460Z,19.60
2019-03-04T15:24:43.486Z,19.50
2019-03-04T15:27:11.475Z,19.30
2019-03-04T15:29:39.403Z,19.20
2019-03-04T15:32:07.375Z,19.20
2019-03-04T15:34:35.555Z,19.00
2019-03-04T15:37:03.371Z,18.90
2019-03-04T15:39:31.319Z,18.70
2019-03-04T15:41:59.248Z,18.70
2019-03-04T15:44:27.231Z,18.60
2019-03-04T15:46:55.089Z,18.60
2019-03-04T15:49:22.983Z,18.50
2019-03-04T15:51:50.914Z,18.40
2019-03-04T15:54:18.926Z,18.30
2019-03-04T15:56:46.995Z,18.30
2019-03-04T15:59:14.958Z,18.20
2019-03-04T16:01:43.165Z,18.20
2019-03-04T16:04:11.315Z,18.10
2019-03-04T16:06:39.263Z,18.00
2019-03-04T16:09:12.904Z,18.00
2019-03-04T16:11:40.875Z,17.90
2019-03-04T16:14:09.123Z,17.80
2019-03-04T16:16:37.963Z,17.80
2019-03-04T16:19:06.019Z,17.80
2019-03-04T16:21:34.022Z,17.80
2019-03-04T16:24:02.067Z,17.80
2019-03-04T16:26:30.047Z,17.80
2019-03-04T16:28:57.975Z,17.80
2019-03-04T16:31:25.869Z,17.70
2019-03-04T16:33:53.707Z,17.60
2019-03-04T16:36:21.804Z,17.50
2019-03-04T16:38:49.751Z,17.40
2019-03-04T16:41:17.767Z,17.40
2019-03-04T16:43:45.856Z,17.40
2019-03-04T16:46:14.467Z,17.30
2019-03-04T16:48:42.533Z,17.20
2019-03-04T16:51:10.514Z,17.20
2019-03-04T16:53:38.435Z,17.20
2019-03-04T16:56:06.530Z,17.10
2019-03-04T16:58:34.499Z,17.10
2019-03-04T17:01:02.771Z,17.10
2019-03-04T17:03:30.723Z,17.00
2019-03-04T17:05:58.633Z,17.00
2019-03-04T17:08:26.743Z,16.90
2019-03-04T17:10:54.647Z,16.90
2019-03-04T17:13:25.438Z,16.90
2019-03-04T17:16:34.708Z,16.90
2019-03-04T17:19:00.949Z,16.90
2019-03-04T17:21:28.969Z,16.90
2019-03-04T17:23:56.922Z,16.90
2019-03-04T17:26:25.013Z,16.90
2019-03-04T17:28:53.101Z,16.90
2019-03-04T17:31:20.968Z,16.90
2019-03-04T17:33:48.862Z,16.80
2019-03-04T17:36:16.815Z,16.80
2019-03-04T17:38:44.926Z,16.80
2019-03-04T17:41:12.857Z,16.80
2019-03-04T17:43:41.037Z,16.80
2019-03-04T17:46:09.591Z,16.80
2019-03-04T17:48:37.864Z,16.70
2019-03-04T17:51:06.303Z,16.80
2019-03-04T17:53:34.270Z,16.60
2019-03-04T17:56:02.297Z,16.60
2019-03-04T17:58:30.281Z,16.60
2019-03-04T18:00:58.230Z,16.60
2019-03-04T18:03:26.271Z,16.60
2019-03-04T18:05:54.331Z,16.50
2019-03-04T18:08:22.331Z,16.50
2019-03-04T18:10:50.543Z,16.50
2019-03-04T18:13:19.180Z,16.30
2019-03-04T18:16:29.855Z,16.30
2019-03-04T18:18:56.631Z,16.30
2019-03-04T18:21:25.002Z,16.30
2019-03-04T18:23:53.299Z,16.30
2019-03-04T18:26:28.531Z,16.30
2019-03-04T18:29:36.605Z,16.20
2019-03-04T18:32:39.775Z,16.20
2019-03-04T18:35:51.920Z,16.20
2019-03-04T18:38:57.038Z,16.10
2019-03-04T18:41:42.849Z,16.00
2019-03-04T18:44:41.146Z,16.00
2019-03-04T18:47:37.056Z,15.90
2019-03-04T18:50:05.602Z,15.90
2019-03-04T18:52:33.555Z,15.90
2019-03-04T18:55:01.765Z,15.90
2019-03-04T18:57:29.780Z,15.90
2019-03-04T18:59:58.041Z,15.90
2019-03-04T19:02:26.071Z,15.80
2019-03-04T19:04:54.093Z,15.80
2019-03-04T19:07:22.566Z,15.80
2019-03-04T19:09:51.176Z,15.70
2019-03-04T19:12:19.803Z,15.70
2019-03-04T19:15:27.210Z,15.70
2019-03-04T19:17:53.715Z,15.60
2019-03-04T19:20:22.209Z,15.60
2019-03-04T19:22:50.222Z,15.60
2019-03-04T19:25:18.852Z,15.60
2019-03-04T19:27:48.462Z,15.60
2019-03-04T19:30:16.784Z,15.50
2019-03-04T19:32:47.469Z,15.50
2019-03-04T19:35:16.044Z,15.60
2019-03-04T19:37:44.155Z,15.50
2019-03-04T19:40:12.327Z,15.50
2019-03-04T19:42:40.698Z,15.40
2019-03-04T19:45:11.145Z,15.40
2019-03-04T19:47:39.411Z,15.50
2019-03-04T19:50:08.806Z,15.40
2019-03-04T19:52:36.783Z,15.40
2019-03-04T19:55:06.503Z,15.30
2019-03-04T19:57:34.982Z,15.40
2019-03-04T20:00:04.195Z,15.40
2019-03-04T20:02:32.475Z,15.40
2019-03-04T20:05:01.451Z,15.40
2019-03-04T20:07:30.451Z,15.40
2019-03-04T20:09:59.401Z,15.40
2019-03-04T20:12:28.101Z,15.30
2019-03-04T20:15:23.695Z,15.30
2019-03-04T20:17:50.136Z,15.30
2019-03-04T20:20:18.742Z,15.30
2019-03-04T20:22:48.388Z,15.30
2019-03-04T20:25:17.542Z,15.30
2019-03-04T20:27:47.803Z,15.30
2019-03-04T20:30:15.937Z,15.30
2019-03-04T20:32:44.326Z,15.30
2019-03-04T20:35:12.779Z,15.30
2019-03-04T20:37:42.945Z,15.20
2019-03-04T20:40:11.323Z,15.20
2019-03-04T20:42:40.048Z,15.20
2019-03-04T20:45:09.207Z,15.30
2019-03-04T20:47:37.347Z,15.20
2019-03-04T20:50:07.358Z,15.20
2019-03-04T20:52:35.510Z,15.20
2019-03-04T20:55:04.179Z,15.20
2019-03-04T20:57:32.118Z,15.20
2019-03-04T21:00:00.358Z,15.20
2019-03-04T21:02:28.591Z,15.20
2019-03-04T21:04:56.766Z,15.20
2019-03-04T21:07:25.002Z,15.20
2019-03-04T21:09:53.118Z,15.10
2019-03-04T21:12:21.074Z,15.20
2019-03-04T21:15:32.861Z,15.20
2019-03-04T21:18:49.092Z,15.20
2019-03-04T21:21:15.017Z,15.20
2019-03-04T21:23:43.091Z,15.20
2019-03-04T21:27:09.539Z,15.30
2019-03-04T21:29:57.591Z,15.20
2019-03-04T21:33:10.003Z,15.20
2019-03-04T21:36:49.431Z,15.20
2019-03-04T21:39:17.725Z,15.20
2019-03-04T21:41:52.786Z,15.30
2019-03-04T21:45:08.217Z,15.30
2019-03-04T21:47:40.311Z,15.30
2019-03-04T21:50:10.055Z,15.30
2019-03-04T21:53:02.064Z,15.20
2019-03-04T21:55:44.350Z,15.20
2019-03-04T21:58:12.335Z,15.20
2019-03-04T22:00:41.992Z,15.20
2019-03-04T22:03:33.213Z,15.20
2019-03-04T22:06:01.140Z,15.20
2019-03-04T22:08:29.035Z,15.20
2019-03-04T22:10:57.718Z,15.20
2019-03-04T22:13:25.701Z,15.20
2019-03-04T22:16:36.010Z,15.20
2019-03-04T22:19:02.147Z,15.20
2019-03-04T22:21:30.006Z,15.10
2019-03-04T22:23:57.889Z,15.10
2019-03-04T22:26:25.819Z,15.10
2019-03-04T22:28:53.748Z,15.10
2019-03-04T22:31:21.626Z,15.10
2019-03-04T22:33:49.579Z,15.10
2019-03-04T22:36:17.761Z,15.10
2019-03-04T22:38:45.931Z,15.10
2019-03-04T22:41:14.001Z,15.10
2019-03-04T22:43:41.874Z,15.00
2019-03-04T22:46:09.786Z,15.00
2019-03-04T22:48:37.915Z,15.00
2019-03-04T22:51:05.860Z,15.00
2019-03-04T22:53:33.714Z,15.00
2019-03-04T22:56:01.684Z,14.90
2019-03-04T22:58:29.553Z,14.90
2019-03-04T23:01:46.823Z,14.90
2019-03-04T23:04:35.543Z,14.90
2019-03-04T23:07:42.275Z,14.80
2019-03-04T23:10:25.628Z,14.80
2019-03-04T23:13:19.627Z,14.80
2019-03-04T23:15:49.358Z,14.80
2019-03-04T23:18:17.291Z,14.80
2019-03-04T23:20:45.455Z,14.80
2019-03-04T23:23:13.700Z,14.80
2019-03-04T23:25:41.718Z,14.90
2019-03-04T23:28:09.667Z,14.90
2019-03-04T23:30:37.549Z,14.90
2019-03-04T23:33:05.438Z,14.80
2019-03-04T23:35:33.475Z,14.80
2019-03-04T23:38:01.373Z,14.90
2019-03-04T23:40:29.402Z,14.80
2019-03-04T23:42:57.318Z,14.80
2019-03-04T23:45:25.279Z,14.80
2019-03-04T23:47:53.225Z,14.80
2019-03-04T23:50:22.349Z,14.80
2019-03-04T23:52:50.589Z,14.80
2019-03-04T23:55:18.858Z,14.70
2019-03-04T23:57:48.506Z,14.70
